createdAt,value
2018-02-27T01:42:08.987Z,68.66
2018-02-27T01:42:09.557Z,69.04
2018-02-27T01:42:10.156Z,68.95
2018-02-27T01:42:10.755Z,68.66
2018-02-27T01:42:11.357Z,68.76
2018-02-27T01:42:11.959Z,68.66
2018-02-27T01:42:12.555Z,68.66
2018-02-27T01:43:06.511Z,67.53
2018-02-27T01:43:07.105Z,67.62
2018-02-27T01:43:07.706Z,67.43
2018-02-27T01:43:08.305Z,67.91
2018-02-27T01:43:08.905Z,67.91
2018-02-27T01:43:09.507Z,67.72
2018-02-27T01:43:10.105Z,67.91
2018-02-27T01:44:24.129Z,66.96
2018-02-27T01:44:24.739Z,66.96
2018-02-27T01:44:25.327Z,66.96
2018-02-27T01:44:25.927Z,66.77
2018-02-27T01:44:26.526Z,66.96
2018-02-27T01:44:27.126Z,66.87
2018-02-27T01:44:27.726Z,66.77
2018-02-27T01:45:21.680Z,66.77
2018-02-27T01:45:22.278Z,66.77
2018-02-27T01:45:22.876Z,66.96
2018-02-27T01:45:23.477Z,67.06
2018-02-27T01:45:24.077Z,66.77
2018-02-27T01:45:24.676Z,67.06
2018-02-27T01:45:25.276Z,66.96
2018-02-27T01:46:39.337Z,66.11
2018-02-27T01:46:39.898Z,66.11
2018-02-27T01:46:40.497Z,66.11
2018-02-27T01:46:41.100Z,66.30
2018-02-27T01:46:41.697Z,66.02
2018-02-27T01:46:42.308Z,66.02
2018-02-27T01:46:42.897Z,66.30
2018-02-27T01:47:36.961Z,65.36
2018-02-27T01:47:37.553Z,65.26
2018-02-27T01:47:38.149Z,65.26
2018-02-27T01:47:38.754Z,65.64
2018-02-27T01:47:39.349Z,65.55
2018-02-27T01:47:39.949Z,65.64
2018-02-27T01:47:40.547Z,65.45
2018-02-27T01:48:34.093Z,64.98
2018-02-27T01:48:34.690Z,64.89
2018-02-27T01:48:35.290Z,64.89
2018-02-27T01:48:35.891Z,64.89
2018-02-27T01:48:36.490Z,64.89
2018-02-27T01:48:37.089Z,65.26
2018-02-27T01:48:37.690Z,64.89
2018-02-27T01:48:38.289Z,65.92
2018-02-27T01:49:32.256Z,64.61
2018-02-27T01:49:32.858Z,64.79
2018-02-27T01:49:33.454Z,64.61
2018-02-27T01:49:34.053Z,64.51
2018-02-27T01:49:34.653Z,64.61
2018-02-27T01:49:35.253Z,64.89
2018-02-27T01:49:35.855Z,64.98
2018-02-27T01:50:30.013Z,64.70
2018-02-27T01:50:30.609Z,64.61
2018-02-27T01:50:31.209Z,64.61
2018-02-27T01:50:31.809Z,64.32
2018-02-27T01:50:32.407Z,64.23
2018-02-27T01:50:33.008Z,64.14
2018-02-27T01:50:33.607Z,64.32
2018-02-27T01:50:34.207Z,64.32
2018-02-27T01:51:28.174Z,63.57
2018-02-27T01:51:28.773Z,63.95
2018-02-27T01:51:29.371Z,63.57
2018-02-27T01:51:29.972Z,63.57
2018-02-27T01:51:30.570Z,63.57
2018-02-27T01:51:31.170Z,63.76
2018-02-27T01:51:31.776Z,63.57
2018-02-27T01:52:45.828Z,62.72
2018-02-27T01:52:46.391Z,62.81
2018-02-27T01:52:46.989Z,63.00
2018-02-27T01:52:47.602Z,63.00
2018-02-27T01:52:48.195Z,62.81
2018-02-27T01:52:48.788Z,62.81
2018-02-27T01:52:49.387Z,63.10
2018-02-27T01:53:43.449Z,62.72
2018-02-27T01:53:44.043Z,62.72
2018-02-27T01:53:44.644Z,62.62
2018-02-27T01:53:45.250Z,62.72
2018-02-27T01:53:45.842Z,62.53
2018-02-27T01:53:46.443Z,62.53
2018-02-27T01:53:47.042Z,62.53
2018-02-27T01:54:41.100Z,61.49
2018-02-27T01:54:41.698Z,61.77
2018-02-27T01:54:42.297Z,61.77
2018-02-27T01:54:42.894Z,61.87
2018-02-27T01:54:43.495Z,61.77
2018-02-27T01:54:44.094Z,61.68
2018-02-27T01:54:44.695Z,61.77
2018-02-27T01:55:38.750Z,61.68
2018-02-27T01:55:39.348Z,61.61
2018-02-27T01:55:39.946Z,61.49
2018-02-27T01:55:40.551Z,61.71
2018-02-27T01:55:41.151Z,61.15
2018-02-27T01:55:41.746Z,61.68
2018-02-27T01:55:42.345Z,61.80
2018-02-27T01:56:36.401Z,61.15
2018-02-27T01:56:36.999Z,60.86
2018-02-27T01:56:37.610Z,60.68
2018-02-27T01:56:38.200Z,60.86
2018-02-27T01:56:38.798Z,60.77
2018-02-27T01:56:39.398Z,61.05
2018-02-27T01:56:39.997Z,60.39
2018-02-27T01:57:34.058Z,60.30
2018-02-27T01:57:34.651Z,60.49
2018-02-27T01:57:35.250Z,60.58
2018-02-27T01:57:35.854Z,60.30
2018-02-27T01:57:36.449Z,60.58
2018-02-27T01:57:37.047Z,60.58
2018-02-27T01:57:37.650Z,60.49
2018-02-27T01:58:31.736Z,60.49
2018-02-27T01:58:32.303Z,60.58
2018-02-27T01:58:32.902Z,60.58
2018-02-27T01:58:33.505Z,60.58
2018-02-27T01:58:34.101Z,60.58
2018-02-27T01:58:34.703Z,60.49
2018-02-27T01:58:35.302Z,60.68
2018-02-27T01:59:29.357Z,61.61
2018-02-27T01:59:29.955Z,61.43
2018-02-27T01:59:30.553Z,61.15
2018-02-27T01:59:31.153Z,61.43
2018-02-27T01:59:31.754Z,61.52
2018-02-27T01:59:32.353Z,61.33
2018-02-27T01:59:32.951Z,61.43
2018-02-27T02:00:27.010Z,61.52
2018-02-27T02:00:27.605Z,61.61
2018-02-27T02:00:28.205Z,61.61
2018-02-27T02:00:28.806Z,61.61
2018-02-27T02:00:29.404Z,61.80
2018-02-27T02:00:30.005Z,61.80
2018-02-27T02:00:30.604Z,61.71
2018-02-27T02:01:24.660Z,62.56
2018-02-27T02:01:25.257Z,62.94
2018-02-27T02:01:25.858Z,62.56
2018-02-27T02:01:26.459Z,62.84
2018-02-27T02:01:27.061Z,62.84
2018-02-27T02:01:27.664Z,62.94
2018-02-27T02:01:28.256Z,62.94
2018-02-27T02:02:22.330Z,64.54
2018-02-27T02:02:22.911Z,64.64
2018-02-27T02:02:23.509Z,64.36
2018-02-27T02:02:24.109Z,64.83
2018-02-27T02:02:24.707Z,64.73
2018-02-27T02:02:25.311Z,64.83
2018-02-27T02:02:25.908Z,64.73
2018-02-27T02:03:19.966Z,65.39
2018-02-27T02:03:20.562Z,65.20
2018-02-27T02:03:21.165Z,65.20
2018-02-27T02:03:21.761Z,65.30
2018-02-27T02:03:22.362Z,65.30
2018-02-27T02:03:22.961Z,65.30
2018-02-27T02:03:23.559Z,64.92
2018-02-27T02:04:17.651Z,65.48
2018-02-27T02:04:18.212Z,65.30
2018-02-27T02:04:18.813Z,65.48
2018-02-27T02:04:19.415Z,65.67
2018-02-27T02:04:20.012Z,65.30
2018-02-27T02:04:20.611Z,66.15
2018-02-27T02:04:21.211Z,65.96
2018-02-27T02:05:15.268Z,66.71
2018-02-27T02:05:15.862Z,66.90
2018-02-27T02:05:16.465Z,66.81
2018-02-27T02:05:17.068Z,66.71
2018-02-27T02:05:17.667Z,66.62
2018-02-27T02:05:18.263Z,66.81
2018-02-27T02:05:18.863Z,66.81
2018-02-27T02:06:12.935Z,67.94
2018-02-27T02:06:13.516Z,67.85
2018-02-27T02:06:14.115Z,68.04
2018-02-27T02:06:14.715Z,68.23
2018-02-27T02:06:15.314Z,68.04
2018-02-27T02:06:15.916Z,68.04
2018-02-27T02:06:16.515Z,68.04
2018-02-27T02:07:10.571Z,70.49
2018-02-27T02:07:11.168Z,70.39
2018-02-27T02:07:11.769Z,70.58
2018-02-27T02:07:12.367Z,70.39
2018-02-27T02:07:12.969Z,70.20
2018-02-27T02:07:13.567Z,70.30
2018-02-27T02:07:14.167Z,70.39
2018-02-27T02:08:08.221Z,72.09
2018-02-27T02:08:08.822Z,72.19
2018-02-27T02:08:09.418Z,72.47
2018-02-27T02:08:10.020Z,71.81
2018-02-27T02:08:10.619Z,72.56
2018-02-27T02:08:11.217Z,72.09
2018-02-27T02:08:11.820Z,72.47
2018-02-27T02:09:05.875Z,74.17
2018-02-27T02:09:06.470Z,73.79
2018-02-27T02:09:07.077Z,73.88
2018-02-27T02:09:07.669Z,74.36
2018-02-27T02:09:08.270Z,74.17
2018-02-27T02:09:08.871Z,73.88
2018-02-27T02:09:09.469Z,74.26
2018-02-27T02:10:03.559Z,75.68
2018-02-27T02:10:04.123Z,75.78
2018-02-27T02:10:04.723Z,75.59
2018-02-27T02:10:05.321Z,75.49
2018-02-27T02:10:05.923Z,75.68
2018-02-27T02:10:06.522Z,75.68
2018-02-27T02:10:07.126Z,75.49
2018-02-27T02:11:01.178Z,76.81
2018-02-27T02:11:01.774Z,76.90
2018-02-27T02:11:02.373Z,76.90
2018-02-27T02:11:02.974Z,76.72
2018-02-27T02:11:03.574Z,76.90
2018-02-27T02:11:04.172Z,76.43
2018-02-27T02:11:04.773Z,76.72
2018-02-27T02:11:58.831Z,77.80
2018-02-27T02:11:59.429Z,77.75
2018-02-27T02:12:00.026Z,77.75
2018-02-27T02:12:00.627Z,77.75
2018-02-27T02:12:01.225Z,77.80
2018-02-27T02:12:01.826Z,77.66
2018-02-27T02:12:02.424Z,77.47
2018-02-27T02:12:56.482Z,79.11
2018-02-27T02:12:57.076Z,79.30
2018-02-27T02:12:57.681Z,79.46
2018-02-27T02:12:58.276Z,79.64
2018-02-27T02:12:58.876Z,79.55
2018-02-27T02:12:59.474Z,79.87
2018-02-27T02:13:00.144Z,79.46
2018-02-27T02:13:54.132Z,81.15
2018-02-27T02:13:54.730Z,81.20
2018-02-27T02:13:55.331Z,81.15
2018-02-27T02:13:55.933Z,81.29
2018-02-27T02:13:56.530Z,81.24
2018-02-27T02:13:57.129Z,81.67
2018-02-27T02:13:57.728Z,81.62
2018-02-27T02:14:51.785Z,82.51
2018-02-27T02:14:52.381Z,82.32
2018-02-27T02:14:52.983Z,82.32
2018-02-27T02:14:53.581Z,82.32
2018-02-27T02:14:54.181Z,82.32
2018-02-27T02:14:54.780Z,82.32
2018-02-27T02:14:55.380Z,82.42
2018-02-27T02:15:49.462Z,83.55
2018-02-27T02:15:50.037Z,82.89
2018-02-27T02:15:50.632Z,83.08
2018-02-27T02:15:51.234Z,82.99
2018-02-27T02:15:51.834Z,83.17
2018-02-27T02:15:52.432Z,82.80
2018-02-27T02:15:53.034Z,83.36
2018-02-27T02:16:47.132Z,85.44
2018-02-27T02:16:47.684Z,85.53
2018-02-27T02:16:48.287Z,85.44
2018-02-27T02:16:48.884Z,85.82
2018-02-27T02:16:49.486Z,85.44
2018-02-27T02:16:50.083Z,85.35
2018-02-27T02:16:50.684Z,85.35
2018-02-27T02:17:44.739Z,85.53
2018-02-27T02:17:45.337Z,85.72
2018-02-27T02:17:45.935Z,85.82
2018-02-27T02:17:46.536Z,86.10
2018-02-27T02:17:47.139Z,86.29
2018-02-27T02:17:47.736Z,86.10
2018-02-27T02:17:48.335Z,85.91
2018-02-27T02:18:42.399Z,86.38
2018-02-27T02:18:42.988Z,86.38
2018-02-27T02:18:43.587Z,86.19
2018-02-27T02:18:44.185Z,86.48
2018-02-27T02:18:44.786Z,86.01
2018-02-27T02:18:45.386Z,86.48
2018-02-27T02:18:45.986Z,86.38
2018-02-27T02:19:40.043Z,85.53
2018-02-27T02:19:40.638Z,85.63
2018-02-27T02:19:41.239Z,85.72
2018-02-27T02:19:41.839Z,85.63
2018-02-27T02:19:42.438Z,85.72
2018-02-27T02:19:43.038Z,85.63
2018-02-27T02:19:43.638Z,85.44
2018-02-27T02:20:37.693Z,85.16
2018-02-27T02:20:38.294Z,85.25
2018-02-27T02:20:38.894Z,85.16
2018-02-27T02:20:39.495Z,85.72
2018-02-27T02:20:40.091Z,85.63
2018-02-27T02:20:40.689Z,85.25
2018-02-27T02:20:41.290Z,85.44
2018-02-27T02:21:35.380Z,85.63
2018-02-27T02:21:35.943Z,85.53
2018-02-27T02:21:36.547Z,85.35
2018-02-27T02:21:37.143Z,85.72
2018-02-27T02:21:37.742Z,85.82
2018-02-27T02:21:38.345Z,85.82
2018-02-27T02:21:38.941Z,85.72
2018-02-27T02:22:32.998Z,85.44
2018-02-27T02:22:33.595Z,85.25
2018-02-27T02:22:34.195Z,85.63
2018-02-27T02:22:34.795Z,85.53
2018-02-27T02:22:35.395Z,85.53
2018-02-27T02:22:35.994Z,85.53
2018-02-27T02:22:36.598Z,85.63
2018-02-27T02:23:30.649Z,85.91
2018-02-27T02:23:31.246Z,85.91
2018-02-27T02:23:31.847Z,85.91
2018-02-27T02:23:32.447Z,86.01
2018-02-27T02:23:33.046Z,85.91
2018-02-27T02:23:33.646Z,86.01
2018-02-27T02:23:34.245Z,86.01
2018-02-27T02:24:28.301Z,86.10
2018-02-27T02:24:28.903Z,85.72
2018-02-27T02:24:29.499Z,85.82
2018-02-27T02:24:30.097Z,85.63
2018-02-27T02:24:30.696Z,85.35
2018-02-27T02:24:31.299Z,85.53
2018-02-27T02:24:31.896Z,85.72
2018-02-27T02:25:25.952Z,85.44
2018-02-27T02:25:26.550Z,85.53
2018-02-27T02:25:27.150Z,85.63
2018-02-27T02:25:27.751Z,85.53
2018-02-27T02:25:28.349Z,85.63
2018-02-27T02:25:28.949Z,85.53
2018-02-27T02:25:29.548Z,85.53
2018-02-27T02:26:23.641Z,85.91
2018-02-27T02:26:24.200Z,85.91
2018-02-27T02:26:24.801Z,85.91
2018-02-27T02:26:25.402Z,85.82
2018-02-27T02:26:26.001Z,85.91
2018-02-27T02:26:26.600Z,85.82
2018-02-27T02:26:27.200Z,86.01
2018-02-27T02:27:21.256Z,86.95
2018-02-27T02:27:21.851Z,86.95
2018-02-27T02:27:22.451Z,87.05
2018-02-27T02:27:23.056Z,87.14
2018-02-27T02:27:23.652Z,87.24
2018-02-27T02:27:24.250Z,87.24
2018-02-27T02:27:24.851Z,86.86
2018-02-27T02:28:18.907Z,87.99
2018-02-27T02:28:19.503Z,87.62
2018-02-27T02:28:20.106Z,87.62
2018-02-27T02:28:20.706Z,87.62
2018-02-27T02:28:21.302Z,88.09
2018-02-27T02:28:21.903Z,88.09
2018-02-27T02:28:22.503Z,88.09
2018-02-27T02:29:16.560Z,87.90
2018-02-27T02:29:17.156Z,87.90
2018-02-27T02:29:17.756Z,87.80
2018-02-27T02:29:18.356Z,87.80
2018-02-27T02:29:18.955Z,87.90
2018-02-27T02:29:19.557Z,87.80
2018-02-27T02:29:20.154Z,87.80
2018-02-27T02:30:14.213Z,88.18
2018-02-27T02:30:14.809Z,88.28
2018-02-27T02:30:15.409Z,88.37
2018-02-27T02:30:16.008Z,88.18
2018-02-27T02:30:16.608Z,88.37
2018-02-27T02:30:17.207Z,88.37
2018-02-27T02:30:17.820Z,88.37
2018-02-27T02:31:11.864Z,89.78
2018-02-27T02:31:12.462Z,89.69
2018-02-27T02:31:13.059Z,89.78
2018-02-27T02:31:13.658Z,89.69
2018-02-27T02:31:14.258Z,89.78
2018-02-27T02:31:14.858Z,89.50
2018-02-27T02:31:15.458Z,89.50
2018-02-27T02:32:09.553Z,89.88
2018-02-27T02:32:10.111Z,89.97
2018-02-27T02:32:10.711Z,90.26
2018-02-27T02:32:11.310Z,89.97
2018-02-27T02:32:11.916Z,89.97
2018-02-27T02:32:12.510Z,90.26
2018-02-27T02:32:13.111Z,90.16
2018-02-27T02:33:07.164Z,90.16
2018-02-27T02:33:07.770Z,89.78
2018-02-27T02:33:08.364Z,90.16
2018-02-27T02:33:08.962Z,89.78
2018-02-27T02:33:09.565Z,90.16
2018-02-27T02:33:10.162Z,89.78
2018-02-27T02:33:10.762Z,89.88
2018-02-27T02:34:04.820Z,90.26
2018-02-27T02:34:05.414Z,90.45
2018-02-27T02:34:06.015Z,90.45
2018-02-27T02:34:06.614Z,90.35
2018-02-27T02:34:07.215Z,90.45
2018-02-27T02:34:07.815Z,90.16
2018-02-27T02:34:08.413Z,90.45
2018-02-27T02:35:02.474Z,90.26
2018-02-27T02:35:03.065Z,90.16
2018-02-27T02:35:03.666Z,90.26
2018-02-27T02:35:04.265Z,90.16
2018-02-27T02:35:04.865Z,90.35
2018-02-27T02:35:05.465Z,90.16
2018-02-27T02:35:06.066Z,90.16
2018-02-27T02:36:00.128Z,90.35
2018-02-27T02:36:00.716Z,90.16
2018-02-27T02:36:01.317Z,90.35
2018-02-27T02:36:01.917Z,90.07
2018-02-27T02:36:02.518Z,90.16
2018-02-27T02:36:03.116Z,90.35
2018-02-27T02:36:03.716Z,90.35
2018-02-27T02:36:57.772Z,90.54
2018-02-27T02:36:58.372Z,90.73
2018-02-27T02:36:58.968Z,90.54
2018-02-27T02:36:59.570Z,90.73
2018-02-27T02:37:00.173Z,90.73
2018-02-27T02:37:00.768Z,90.73
2018-02-27T02:37:01.367Z,90.73
2018-02-27T02:37:55.451Z,90.45
2018-02-27T02:37:56.021Z,90.45
2018-02-27T02:37:56.620Z,90.54
2018-02-27T02:37:57.223Z,90.45
2018-02-27T02:37:57.821Z,90.45
2018-02-27T02:37:58.420Z,90.54
2018-02-27T02:37:59.020Z,90.54
2018-02-27T02:55:52.386Z,90.97
2018-02-27T02:55:52.903Z,90.87
2018-02-27T02:55:53.501Z,90.68
2018-02-27T02:55:54.100Z,90.87
2018-02-27T02:55:54.701Z,90.87
2018-02-27T02:55:55.305Z,90.97
2018-02-27T02:55:55.900Z,90.87
2018-02-27T02:56:49.930Z,90.40
2018-02-27T02:56:50.532Z,89.74
2018-02-27T02:56:51.124Z,90.50
2018-02-27T02:56:51.723Z,90.50
2018-02-27T02:56:52.323Z,90.40
2018-02-27T02:56:52.923Z,90.50
2018-02-27T02:56:53.522Z,89.93
2018-02-27T02:57:47.477Z,89.17
2018-02-27T02:57:48.075Z,89.27
2018-02-27T02:57:48.674Z,89.27
2018-02-27T02:57:49.275Z,89.36
2018-02-27T02:57:49.873Z,89.27
2018-02-27T02:57:50.478Z,89.27
2018-02-27T02:57:51.076Z,89.36
2018-02-27T02:59:05.131Z,87.29
2018-02-27T02:59:05.693Z,87.66
2018-02-27T02:59:06.297Z,87.66
2018-02-27T02:59:06.894Z,87.66
2018-02-27T02:59:07.493Z,87.66
2018-02-27T02:59:08.093Z,87.29
2018-02-27T02:59:08.693Z,87.66
2018-02-27T03:00:02.752Z,87.95
2018-02-27T03:00:03.348Z,87.76
2018-02-27T03:00:03.947Z,87.85
2018-02-27T03:00:04.547Z,87.76
2018-02-27T03:00:05.148Z,87.66
2018-02-27T03:00:05.747Z,87.66
2018-02-27T03:00:06.344Z,87.66
2018-02-27T03:00:59.892Z,87.66
2018-02-27T03:01:00.489Z,87.48
2018-02-27T03:01:01.089Z,87.00
2018-02-27T03:01:01.689Z,87.48
2018-02-27T03:01:02.292Z,87.38
2018-02-27T03:01:02.888Z,87.10
2018-02-27T03:01:03.487Z,86.82
2018-02-27T03:01:04.086Z,86.72
2018-02-27T03:01:58.054Z,86.44
2018-02-27T03:01:58.653Z,86.34
2018-02-27T03:01:59.250Z,85.87
2018-02-27T03:01:59.850Z,86.25
2018-02-27T03:02:00.451Z,85.77
2018-02-27T03:02:01.051Z,86.34
2018-02-27T03:02:01.710Z,85.87
2018-02-27T03:03:15.673Z,85.40
2018-02-27T03:03:16.271Z,85.21
2018-02-27T03:03:16.869Z,85.21
2018-02-27T03:03:17.469Z,85.40
2018-02-27T03:03:18.069Z,85.11
2018-02-27T03:03:18.670Z,85.40
2018-02-27T03:03:19.268Z,85.40
2018-02-27T03:04:13.362Z,83.80
2018-02-27T03:04:13.923Z,83.70
2018-02-27T03:04:14.523Z,83.70
2018-02-27T03:04:15.123Z,83.80
2018-02-27T03:04:15.722Z,83.98
2018-02-27T03:04:16.322Z,83.89
2018-02-27T03:04:16.922Z,84.17
2018-02-27T03:05:10.977Z,83.14
2018-02-27T03:05:11.576Z,82.76
2018-02-27T03:05:12.175Z,83.23
2018-02-27T03:05:12.776Z,82.66
2018-02-27T03:05:13.404Z,82.57
2018-02-27T03:05:13.973Z,82.76
2018-02-27T03:05:14.572Z,82.57
2018-02-27T03:06:08.630Z,82.57
2018-02-27T03:06:09.226Z,82.57
2018-02-27T03:06:09.827Z,82.66
2018-02-27T03:06:10.426Z,83.04
2018-02-27T03:06:11.029Z,82.66
2018-02-27T03:06:11.625Z,82.95
2018-02-27T03:06:12.227Z,82.76
2018-02-27T03:07:06.280Z,82.57
2018-02-27T03:07:06.878Z,82.66
2018-02-27T03:07:07.478Z,82.66
2018-02-27T03:07:08.078Z,82.66
2018-02-27T03:07:08.680Z,82.66
2018-02-27T03:07:09.277Z,82.85
2018-02-27T03:07:09.877Z,82.66
2018-02-27T03:08:03.933Z,83.33
2018-02-27T03:08:04.530Z,82.85
2018-02-27T03:08:05.131Z,82.85
2018-02-27T03:08:05.730Z,83.42
2018-02-27T03:08:06.333Z,83.61
2018-02-27T03:08:06.930Z,82.95
2018-02-27T03:08:07.530Z,82.95
2018-02-27T03:09:01.585Z,83.70
2018-02-27T03:09:02.183Z,83.42
2018-02-27T03:09:02.783Z,83.42
2018-02-27T03:09:03.386Z,83.42
2018-02-27T03:09:03.983Z,83.70
2018-02-27T03:09:04.581Z,83.51
2018-02-27T03:09:05.183Z,83.42
2018-02-27T03:09:59.263Z,83.70
2018-02-27T03:09:59.834Z,83.70
2018-02-27T03:10:00.433Z,83.98
2018-02-27T03:10:01.032Z,83.70
2018-02-27T03:10:01.637Z,83.70
2018-02-27T03:10:02.233Z,83.70
2018-02-27T03:10:02.832Z,83.51
2018-02-27T03:10:56.888Z,84.45
2018-02-27T03:10:57.485Z,84.74
2018-02-27T03:10:58.085Z,84.36
2018-02-27T03:10:58.684Z,84.36
2018-02-27T03:10:59.300Z,84.55
2018-02-27T03:10:59.885Z,84.36
2018-02-27T03:11:00.484Z,84.64
2018-02-27T03:11:54.542Z,85.59
2018-02-27T03:11:55.143Z,85.49
2018-02-27T03:11:55.736Z,85.59
2018-02-27T03:11:56.335Z,85.49
2018-02-27T03:11:56.961Z,85.49
2018-02-27T03:11:57.537Z,85.68
2018-02-27T03:11:58.137Z,85.40
2018-02-27T03:12:53.012Z,85.96
2018-02-27T03:12:53.608Z,85.77
2018-02-27T03:12:54.209Z,85.96
2018-02-27T03:12:54.807Z,85.77
2018-02-27T03:12:55.409Z,85.96
2018-02-27T03:12:56.008Z,86.06
2018-02-27T03:12:56.607Z,86.06
2018-02-27T03:13:50.151Z,86.53
2018-02-27T03:13:50.748Z,86.44
2018-02-27T03:13:51.348Z,86.53
2018-02-27T03:13:51.949Z,86.44
2018-02-27T03:13:52.552Z,86.53
2018-02-27T03:13:53.148Z,86.34
2018-02-27T03:13:53.747Z,86.44
2018-02-27T03:13:54.348Z,86.34
2018-02-27T03:14:48.314Z,87.10
2018-02-27T03:14:48.924Z,87.29
2018-02-27T03:14:49.512Z,87.19
2018-02-27T03:14:50.112Z,87.57
2018-02-27T03:14:50.712Z,87.66
2018-02-27T03:14:51.312Z,87.10
2018-02-27T03:14:51.914Z,87.29
2018-02-27T03:15:46.613Z,86.72
2018-02-27T03:15:47.177Z,86.72
2018-02-27T03:15:47.778Z,87.00
2018-02-27T03:15:48.377Z,87.00
2018-02-27T03:15:48.982Z,86.82
2018-02-27T03:15:49.576Z,87.00
2018-02-27T03:15:50.178Z,87.00
2018-02-27T03:16:44.231Z,86.82
2018-02-27T03:16:44.828Z,86.82
2018-02-27T03:16:45.428Z,86.82
2018-02-27T03:16:46.033Z,87.00
2018-02-27T03:16:46.628Z,87.00
2018-02-27T03:16:47.228Z,87.19
2018-02-27T03:16:47.827Z,86.82
2018-02-27T03:17:41.886Z,87.76
2018-02-27T03:17:42.481Z,87.66
2018-02-27T03:17:43.080Z,87.57
2018-02-27T03:17:43.680Z,87.76
2018-02-27T03:17:44.282Z,87.66
2018-02-27T03:17:44.879Z,87.85
2018-02-27T03:17:45.480Z,87.57
2018-02-27T03:18:39.538Z,87.95
2018-02-27T03:18:40.133Z,87.85
2018-02-27T03:18:40.732Z,87.76
2018-02-27T03:18:41.332Z,87.76
2018-02-27T03:18:41.934Z,87.76
2018-02-27T03:18:42.532Z,87.76
2018-02-27T03:18:43.132Z,87.85
2018-02-27T03:19:37.188Z,87.66
2018-02-27T03:19:37.785Z,87.95
2018-02-27T03:19:38.385Z,87.95
2018-02-27T03:19:38.984Z,87.95
2018-02-27T03:19:39.585Z,87.66
2018-02-27T03:19:40.182Z,87.95
2018-02-27T03:19:40.784Z,87.66
2018-02-27T03:20:34.844Z,88.70
2018-02-27T03:20:35.436Z,88.60
2018-02-27T03:20:36.035Z,88.60
2018-02-27T03:20:36.635Z,88.70
2018-02-27T03:20:37.237Z,88.89
2018-02-27T03:20:37.835Z,88.89
2018-02-27T03:20:38.434Z,88.79
2018-02-27T03:21:32.517Z,88.70
2018-02-27T03:21:33.091Z,89.08
2018-02-27T03:21:33.687Z,88.98
2018-02-27T03:21:34.287Z,89.08
2018-02-27T03:21:34.892Z,88.98
2018-02-27T03:21:35.487Z,88.98
2018-02-27T03:21:36.086Z,89.08
2018-02-27T03:22:30.141Z,89.55
2018-02-27T03:22:30.738Z,89.55
2018-02-27T03:22:31.339Z,89.36
2018-02-27T03:22:31.939Z,89.36
2018-02-27T03:22:32.540Z,89.27
2018-02-27T03:22:33.144Z,89.36
2018-02-27T03:22:33.738Z,89.36
2018-02-27T03:23:27.795Z,89.64
2018-02-27T03:23:28.391Z,89.64
2018-02-27T03:23:28.990Z,89.93
2018-02-27T03:23:29.590Z,89.74
2018-02-27T03:23:30.192Z,89.74
2018-02-27T03:23:30.790Z,89.93
2018-02-27T03:23:31.389Z,89.93
2018-02-27T03:24:25.448Z,90.02
2018-02-27T03:24:26.041Z,90.31
2018-02-27T03:24:26.640Z,90.12
2018-02-27T03:24:27.240Z,90.50
2018-02-27T03:24:27.851Z,90.21
2018-02-27T03:24:28.440Z,90.02
2018-02-27T03:24:29.040Z,90.02
2018-02-27T03:25:23.097Z,89.55
2018-02-27T03:25:23.693Z,89.55
2018-02-27T03:25:24.301Z,89.55
2018-02-27T03:25:24.894Z,89.55
2018-02-27T03:25:25.495Z,89.36
2018-02-27T03:25:26.093Z,89.55
2018-02-27T03:25:26.696Z,89.36
2018-02-27T03:26:20.780Z,89.27
2018-02-27T03:26:21.347Z,89.17
2018-02-27T03:26:21.945Z,89.17
2018-02-27T03:26:22.545Z,89.17
2018-02-27T03:26:23.146Z,88.98
2018-02-27T03:26:23.744Z,89.36
2018-02-27T03:26:24.348Z,89.17
2018-02-27T03:27:18.402Z,88.89
2018-02-27T03:27:18.997Z,88.89
2018-02-27T03:27:19.597Z,88.51
2018-02-27T03:27:20.197Z,88.89
2018-02-27T03:27:20.798Z,89.17
2018-02-27T03:27:21.396Z,89.17
2018-02-27T03:27:21.996Z,89.17
2018-02-27T03:28:16.053Z,88.70
2018-02-27T03:28:16.651Z,88.70
2018-02-27T03:28:17.249Z,88.79
2018-02-27T03:28:17.853Z,89.45
2018-02-27T03:28:18.453Z,89.08
2018-02-27T03:28:19.047Z,88.89
2018-02-27T03:28:19.648Z,88.89
2018-02-27T03:29:13.704Z,88.98
2018-02-27T03:29:14.302Z,88.89
2018-02-27T03:29:14.900Z,88.70
2018-02-27T03:29:15.504Z,88.79
2018-02-27T03:29:16.103Z,88.79
2018-02-27T03:29:16.699Z,88.60
2018-02-27T03:29:17.301Z,89.27
2018-02-27T03:30:11.356Z,89.83
2018-02-27T03:30:11.953Z,89.64
2018-02-27T03:30:12.553Z,89.83
2018-02-27T03:30:13.152Z,89.64
2018-02-27T03:30:13.755Z,89.64
2018-02-27T03:30:14.352Z,89.55
2018-02-27T03:30:14.951Z,89.64
2018-02-27T03:31:09.007Z,88.98
2018-02-27T03:31:09.605Z,88.70
2018-02-27T03:31:10.204Z,88.89
2018-02-27T03:31:10.813Z,88.98
2018-02-27T03:31:11.418Z,89.08
2018-02-27T03:31:12.002Z,88.79
2018-02-27T03:31:12.602Z,89.08
2018-02-27T03:32:06.691Z,89.08
2018-02-27T03:32:07.255Z,88.98
2018-02-27T03:32:07.855Z,88.70
2018-02-27T03:32:08.455Z,89.08
2018-02-27T03:32:09.060Z,88.89
2018-02-27T03:32:09.654Z,88.89
2018-02-27T03:32:10.254Z,89.08
2018-02-27T03:33:04.311Z,89.55
2018-02-27T03:33:04.906Z,89.45
2018-02-27T03:33:05.507Z,89.36
2018-02-27T03:33:06.107Z,89.36
2018-02-27T03:33:06.711Z,89.27
2018-02-27T03:33:07.306Z,89.45
2018-02-27T03:33:07.906Z,89.36
2018-02-27T03:34:01.962Z,89.64
2018-02-27T03:34:02.559Z,89.83
2018-02-27T03:34:03.158Z,89.83
2018-02-27T03:34:03.759Z,89.83
2018-02-27T03:34:04.362Z,89.74
2018-02-27T03:34:04.961Z,89.83
2018-02-27T03:34:05.555Z,90.12
2018-02-27T03:34:59.615Z,89.74
2018-02-27T03:35:00.212Z,89.93
2018-02-27T03:35:00.811Z,90.12
2018-02-27T03:35:01.410Z,90.12
2018-02-27T03:35:02.012Z,90.12
2018-02-27T03:35:02.612Z,90.12
2018-02-27T03:35:03.212Z,90.12
2018-02-27T03:35:56.755Z,88.98
2018-02-27T03:35:57.354Z,88.89
2018-02-27T03:35:57.952Z,88.98
2018-02-27T03:35:58.551Z,89.17
2018-02-27T03:35:59.155Z,88.89
2018-02-27T03:35:59.752Z,88.51
2018-02-27T03:36:00.352Z,88.79
2018-02-27T03:36:00.950Z,89.17
2018-02-27T03:36:54.915Z,88.42
2018-02-27T03:36:55.516Z,88.23
2018-02-27T03:36:56.115Z,88.23
2018-02-27T03:36:56.714Z,88.32
2018-02-27T03:36:57.314Z,88.70
2018-02-27T03:36:57.913Z,88.32
2018-02-27T03:36:58.520Z,88.32
2018-02-27T03:38:12.562Z,89.08
2018-02-27T03:38:13.133Z,89.36
2018-02-27T03:38:13.734Z,89.08
2018-02-27T03:38:14.333Z,88.98
2018-02-27T03:38:14.933Z,89.36
2018-02-27T03:38:15.532Z,89.45
2018-02-27T03:38:16.132Z,89.27
2018-02-27T03:39:10.187Z,89.45
2018-02-27T03:39:10.785Z,89.27
2018-02-27T03:39:11.388Z,89.27
2018-02-27T03:39:11.984Z,89.08
2018-02-27T03:39:12.586Z,89.08
2018-02-27T03:39:13.184Z,89.08
2018-02-27T03:39:13.784Z,89.08
2018-02-27T03:40:19.412Z,89.55
2018-02-27T03:40:20.009Z,89.55
2018-02-27T03:40:20.608Z,89.64
2018-02-27T03:40:21.206Z,89.36
2018-02-27T03:40:21.813Z,89.36
2018-02-27T03:40:22.406Z,89.55
2018-02-27T03:40:23.006Z,89.55
2018-02-27T03:41:37.031Z,88.60
2018-02-27T03:41:37.629Z,88.60
2018-02-27T03:41:38.227Z,88.98
2018-02-27T03:41:38.828Z,88.89
2018-02-27T03:41:39.428Z,88.79
2018-02-27T03:41:40.030Z,88.98
2018-02-27T03:41:40.627Z,89.08
2018-02-27T03:42:34.714Z,88.70
2018-02-27T03:42:35.279Z,88.70
2018-02-27T03:42:35.879Z,88.70
2018-02-27T03:42:36.478Z,88.98
2018-02-27T03:42:37.080Z,88.70
2018-02-27T03:42:37.679Z,88.70
2018-02-27T03:42:38.278Z,88.79
2018-02-27T03:43:32.334Z,88.79
2018-02-27T03:43:32.931Z,88.79
2018-02-27T03:43:33.531Z,89.55
2018-02-27T03:43:34.130Z,88.70
2018-02-27T03:43:34.734Z,88.60
2018-02-27T03:43:35.332Z,88.70
2018-02-27T03:43:35.930Z,89.36
2018-02-27T03:44:29.984Z,89.36
2018-02-27T03:44:30.582Z,89.36
2018-02-27T03:44:31.188Z,89.55
2018-02-27T03:44:31.782Z,89.08
2018-02-27T03:44:32.383Z,89.45
2018-02-27T03:44:32.985Z,88.89
2018-02-27T03:44:33.581Z,89.27
2018-02-27T03:45:27.639Z,89.36
2018-02-27T03:45:28.238Z,89.27
2018-02-27T03:45:28.835Z,89.08
2018-02-27T03:45:29.436Z,89.08
2018-02-27T03:45:30.037Z,89.45
2018-02-27T03:45:30.634Z,89.36
2018-02-27T03:45:31.234Z,89.08
2018-02-27T03:46:25.292Z,89.55
2018-02-27T03:46:25.885Z,89.55
2018-02-27T03:46:26.486Z,89.36
2018-02-27T03:46:27.085Z,89.74
2018-02-27T03:46:27.690Z,89.55